ENHD Airport Information

Runway Information
Runway 14 Length 6957 ft width 148 ft
Elevation 61 ft Threshold 197 ft Heading 134
Runway 32 Length 6957 ft Width 148 ft
Elevation 86 ft Threshold 197 ft Heading 314
Airport Frequencies
Type ATIS Name ATIS Frequency 118.175 MHZ
Type TWR Name TWR Frequency 120.5 MHZ
Airport Navaids
Type VOR-DME Name Karmoy Frequency 115150 KHZ
Airport Weather Information & NOTAM
ADDS - METARS form results

(2125 UTC 21 July 2018)
 
METAR text: ENHD 212050Z AUTO 27007KT 4100 DZ VV014 15/14 Q1011 REDZ
Conditions at: ENHD (HAUGESUND/KARMOY, NO) observed 2050 UTC 21 July 2018
Temperature: 15.0°C (59°F)
Dewpoint: 14.0°C (57°F) [RH = 94%]
Pressure (altimeter): 29.85 inches Hg (1011.0 mb)
Winds: from the W (270 degrees) at 8 MPH (7 knots; 3.6 m/s)
Visibility: 2.55 miles (4.10 km)
Ceiling: indefinite ceiling with vertical visibility of 1400 feet AGL
Clouds: obscured sky
Weather: DZ  (drizzle)